Terminal Aerodrome Forecast
Issued by NWS

Current Version | Previous Version | Text Only | Print | Product List | Glossary On
Versions: 1 2 3 4 5 6 7 8 9 10 11 12 13 14 15 16 17 18 19 20 21 22 23 24 25 26 27 28 29 30 31 32 33
000 FTUS42 KRAH 221516 AAB TAFINT TAF AMD KINT 221516Z 2215/2312 04007KT 3SM -DZ OVC006 TEMPO 2215/2217 1 1/2SM BR OVC004=

USA.gov is the U.S. government's official web portal to all federal, state and local government web resources and services.